createdAt,value
2022-11-16T00:01:09.040Z,36.40
2022-11-16T00:03:54.104Z,34.50
2022-11-16T00:06:36.986Z,36.70
2022-11-16T00:09:22.522Z,36.40
2022-11-16T00:12:08.813Z,36.90
2022-11-16T00:14:52.014Z,34.20
2022-11-16T00:17:34.741Z,36.40
2022-11-16T00:23:00.215Z,31.70
2022-11-16T00:28:25.793Z,31.70
2022-11-16T00:33:52.911Z,30.20
2022-11-16T00:36:35.798Z,32.90
2022-11-16T00:39:19.351Z,33.10
2022-11-16T00:42:02.347Z,33.60
2022-11-16T00:44:45.848Z,33.10
2022-11-16T00:47:28.707Z,29.80
2022-11-16T00:50:11.623Z,34.30
2022-11-16T00:52:54.743Z,31.50
2022-11-16T00:55:37.972Z,32.80
2022-11-16T00:58:22.413Z,32.60
2022-11-16T01:01:12.722Z,34.40
2022-11-16T01:03:55.715Z,35.30
2022-11-16T01:06:39.550Z,32.60
2022-11-16T01:09:22.306Z,30.10
2022-11-16T01:14:55.641Z,30.60
2022-11-16T01:17:40.196Z,31.60
2022-11-16T01:20:26.915Z,33.90
2022-11-16T01:23:09.776Z,32.00
2022-11-16T01:28:47.224Z,31.60
2022-11-16T01:31:31.565Z,33.20
2022-11-16T01:34:15.822Z,31.70
2022-11-16T01:36:58.685Z,33.30
2022-11-16T01:39:44.936Z,33.60
2022-11-16T01:42:30.699Z,31.70
2022-11-16T01:45:19.352Z,31.60
2022-11-16T01:48:02.698Z,32.20
2022-11-16T01:50:49.473Z,31.50
2022-11-16T01:53:33.615Z,31.50
2022-11-16T01:56:16.757Z,32.00
2022-11-16T01:59:16.048Z,28.70
2022-11-16T02:02:00.786Z,27.50
2022-11-16T02:04:45.948Z,28.10
2022-11-16T02:07:53.830Z,27.10
2022-11-16T02:10:40.301Z,27.50
2022-11-16T02:13:43.261Z,27.00
2022-11-16T02:16:48.394Z,25.80
2022-11-16T02:19:34.635Z,29.00
2022-11-16T02:22:32.669Z,26.00
2022-11-16T02:25:24.896Z,26.80
2022-11-16T02:28:20.097Z,26.50
2022-11-16T02:31:07.436Z,25.40
2022-11-16T02:33:52.662Z,27.60
2022-11-16T02:36:40.717Z,26.80
2022-11-16T02:39:27.609Z,27.50
2022-11-16T02:42:17.360Z,28.20
2022-11-16T02:45:02.561Z,27.80
2022-11-16T02:47:48.845Z,28.90
2022-11-16T02:50:34.413Z,27.60
2022-11-16T02:53:17.226Z,29.50
2022-11-16T02:56:00.118Z,28.30
2022-11-16T02:58:43.170Z,28.30
2022-11-16T03:01:35.545Z,27.70
2022-11-16T03:04:35.877Z,29.20
2022-11-16T03:07:25.721Z,29.90
2022-11-16T03:10:10.338Z,29.40
2022-11-16T03:12:53.353Z,30.90
2022-11-16T03:15:39.542Z,30.50
2022-11-16T03:18:27.472Z,27.50
2022-11-16T03:21:37.401Z,29.30
2022-11-16T03:24:21.447Z,28.70
2022-11-16T03:27:28.610Z,28.90
2022-11-16T03:30:23.536Z,26.90
2022-11-16T03:33:18.091Z,26.90
2022-11-16T03:36:06.725Z,24.80
2022-11-16T03:38:53.125Z,21.60
2022-11-16T03:41:40.447Z,26.70
2022-11-16T03:44:23.695Z,26.10
2022-11-16T03:47:06.949Z,23.90
2022-11-16T03:49:49.795Z,24.10
2022-11-16T03:52:35.056Z,24.30
2022-11-16T03:55:19.981Z,22.50
2022-11-16T03:58:04.295Z,22.10
2022-11-16T04:00:47.470Z,21.90
2022-11-16T04:03:30.733Z,21.90
2022-11-16T04:06:32.971Z,22.40
2022-11-16T04:09:34.610Z,20.70
2022-11-16T04:12:36.482Z,18.40
2022-11-16T04:15:39.241Z,21.00
2022-11-16T04:18:40.764Z,21.20
2022-11-16T04:21:47.132Z,21.10
2022-11-16T04:24:35.154Z,21.80
2022-11-16T04:27:49.001Z,20.50
2022-11-16T04:30:51.024Z,20.50
2022-11-16T04:33:53.305Z,21.20
2022-11-16T04:36:54.875Z,21.80
2022-11-16T04:39:37.663Z,24.30
2022-11-16T04:42:22.482Z,22.60
2022-11-16T04:45:26.170Z,23.30
2022-11-16T04:48:10.447Z,24.40
2022-11-16T04:50:53.487Z,26.00
2022-11-16T04:53:36.544Z,23.40
2022-11-16T04:56:25.778Z,22.10
2022-11-16T04:59:09.367Z,23.50
2022-11-16T05:02:10.464Z,25.00
2022-11-16T05:04:59.678Z,23.40
2022-11-16T05:07:42.852Z,25.50
2022-11-16T05:10:30.115Z,27.00
2022-11-16T05:13:12.902Z,24.90
2022-11-16T05:15:55.892Z,22.40
2022-11-16T05:18:39.019Z,22.70
2022-11-16T05:21:22.287Z,24.40
2022-11-16T05:24:24.391Z,23.50
2022-11-16T05:27:10.513Z,25.20
2022-11-16T05:29:54.430Z,22.80
2022-11-16T05:32:38.139Z,23.40
2022-11-16T05:35:21.573Z,23.60
2022-11-16T05:38:05.362Z,24.70
2022-11-16T05:40:51.698Z,25.20
2022-11-16T05:43:34.514Z,23.80
2022-11-16T05:46:29.063Z,24.30
2022-11-16T05:49:14.769Z,24.20
2022-11-16T05:51:57.956Z,23.40
2022-11-16T05:54:40.996Z,21.90
2022-11-16T05:57:23.923Z,22.40
2022-11-16T06:00:07.759Z,23.10
2022-11-16T06:02:57.773Z,20.90
2022-11-16T06:05:44.457Z,22.60
2022-11-16T06:08:29.306Z,21.60
2022-11-16T06:11:13.742Z,21.90
2022-11-16T06:13:56.761Z,22.20
2022-11-16T06:16:39.678Z,23.50
2022-11-16T06:19:27.008Z,23.40
2022-11-16T06:22:14.383Z,21.40
2022-11-16T06:24:57.866Z,22.10
2022-11-16T06:27:41.754Z,23.50
2022-11-16T06:30:26.312Z,20.80
2022-11-16T06:33:09.322Z,20.00
2022-11-16T06:35:52.746Z,21.40
2022-11-16T06:38:38.654Z,19.20
2022-11-16T06:41:22.976Z,21.00
2022-11-16T06:44:06.122Z,20.70
2022-11-16T06:46:51.898Z,18.40
2022-11-16T06:49:34.885Z,20.50
2022-11-16T06:52:21.319Z,19.10
2022-11-16T06:55:05.167Z,18.50
2022-11-16T06:57:49.209Z,20.40
2022-11-16T07:00:32.885Z,19.60
2022-11-16T07:03:16.396Z,18.10
2022-11-16T07:05:59.789Z,20.60
2022-11-16T07:08:43.066Z,20.10
2022-11-16T07:11:26.115Z,20.80
2022-11-16T07:14:09.045Z,18.60
2022-11-16T07:16:57.937Z,18.90
2022-11-16T07:19:42.519Z,18.30
2022-11-16T07:22:25.549Z,20.50
2022-11-16T07:25:10.000Z,18.60
2022-11-16T07:27:52.891Z,19.20
2022-11-16T07:30:36.646Z,20.00
2022-11-16T07:33:23.654Z,18.80
2022-11-16T07:36:29.505Z,18.20
2022-11-16T07:39:12.631Z,19.60
2022-11-16T07:41:55.943Z,18.90
2022-11-16T07:44:43.307Z,19.60
2022-11-16T07:47:26.474Z,21.80
2022-11-16T07:50:11.069Z,20.10
2022-11-16T07:52:56.093Z,21.00
2022-11-16T07:55:39.928Z,19.90
2022-11-16T07:58:24.790Z,19.30
2022-11-16T08:01:11.524Z,20.10
2022-11-16T08:03:54.918Z,20.20
2022-11-16T08:06:37.740Z,19.60
2022-11-16T08:09:20.740Z,18.70
2022-11-16T08:12:04.683Z,18.90
2022-11-16T08:14:49.388Z,21.10
2022-11-16T08:17:32.349Z,18.10
2022-11-16T08:20:16.802Z,18.00
2022-11-16T08:23:01.087Z,18.60
2022-11-16T08:25:44.164Z,15.70
2022-11-16T08:28:29.027Z,14.00
2022-11-16T08:31:18.070Z,14.10
2022-11-16T08:34:01.629Z,13.80
2022-11-16T08:36:44.986Z,12.10
2022-11-16T08:39:28.223Z,12.20
2022-11-16T08:42:11.479Z,13.20
2022-11-16T08:44:54.812Z,12.10
2022-11-16T08:47:38.635Z,10.70
2022-11-16T08:50:22.997Z,9.80
2022-11-16T08:53:06.344Z,9.10
2022-11-16T08:55:49.327Z,9.10
2022-11-16T08:58:33.416Z,8.90
2022-11-16T09:01:19.178Z,9.40
2022-11-16T09:04:02.170Z,8.40
2022-11-16T09:06:45.880Z,8.60
2022-11-16T09:09:28.777Z,8.00
2022-11-16T09:12:11.576Z,7.40
2022-11-16T09:14:54.435Z,7.80
2022-11-16T09:17:37.248Z,8.20
2022-11-16T09:23:08.706Z,9.50
2022-11-16T09:25:51.627Z,9.50
2022-11-16T09:28:34.850Z,8.90
2022-11-16T09:31:23.171Z,10.00
2022-11-16T09:34:07.145Z,11.10
2022-11-16T09:36:50.038Z,11.70
2022-11-16T09:39:34.454Z,12.00
2022-11-16T09:42:46.051Z,13.00
2022-11-16T09:45:41.441Z,12.20
2022-11-16T09:48:24.691Z,13.30
2022-11-16T09:51:12.390Z,13.90
2022-11-16T09:54:19.871Z,13.20
2022-11-16T09:57:12.168Z,14.60
2022-11-16T10:02:47.872Z,15.00
2022-11-16T10:05:48.682Z,14.50
2022-11-16T10:08:51.549Z,15.60
2022-11-16T10:11:53.198Z,13.70
2022-11-16T10:15:11.857Z,15.00
2022-11-16T10:18:20.828Z,16.80
2022-11-16T10:21:31.112Z,14.80
2022-11-16T10:24:33.446Z,14.80
2022-11-16T10:27:34.607Z,15.00
2022-11-16T10:30:21.875Z,13.70
2022-11-16T10:33:11.446Z,14.10
2022-11-16T10:35:54.395Z,12.70
2022-11-16T10:38:38.085Z,14.00
2022-11-16T10:41:44.331Z,12.90
2022-11-16T10:44:43.821Z,12.40
2022-11-16T10:47:50.193Z,13.00
2022-11-16T10:50:37.506Z,11.10
2022-11-16T10:53:35.114Z,12.20
2022-11-16T10:56:32.686Z,11.00
2022-11-16T10:59:19.222Z,11.00
2022-11-16T11:02:27.314Z,11.50
2022-11-16T11:05:16.377Z,9.80
2022-11-16T11:08:01.806Z,10.40
2022-11-16T11:10:58.614Z,9.20
2022-11-16T11:13:41.460Z,10.00
2022-11-16T11:16:24.475Z,10.30
2022-11-16T11:19:19.556Z,8.90
2022-11-16T11:22:02.585Z,9.40
2022-11-16T11:24:48.862Z,9.40
2022-11-16T11:27:35.488Z,8.40
2022-11-16T11:30:22.369Z,8.30
2022-11-16T11:33:12.332Z,9.40
2022-11-16T11:36:10.485Z,9.00
2022-11-16T11:39:28.494Z,8.80
2022-11-16T11:42:14.505Z,6.90
2022-11-16T11:45:06.528Z,8.20
2022-11-16T11:48:25.366Z,7.30
2022-11-16T11:51:29.360Z,7.10
2022-11-16T11:54:27.546Z,8.70
2022-11-16T11:57:25.627Z,7.40
2022-11-16T12:00:09.620Z,7.00
2022-11-16T12:03:29.292Z,6.40
2022-11-16T12:06:22.587Z,7.60
2022-11-16T12:09:44.424Z,6.30
2022-11-16T12:12:46.033Z,6.20
2022-11-16T12:15:42.080Z,6.60
2022-11-16T12:18:40.356Z,6.80
2022-11-16T12:21:59.008Z,7.30
2022-11-16T12:25:00.273Z,6.70
2022-11-16T12:27:56.734Z,7.30
2022-11-16T12:31:08.915Z,7.70
2022-11-16T12:34:01.039Z,7.40
2022-11-16T12:36:56.028Z,7.30
2022-11-16T12:39:53.269Z,7.80
2022-11-16T12:42:38.846Z,7.70
2022-11-16T12:45:32.640Z,9.00
2022-11-16T12:48:39.164Z,7.80
2022-11-16T12:51:47.353Z,7.40
2022-11-16T12:54:36.340Z,8.20
2022-11-16T12:57:34.479Z,6.60
2022-11-16T13:00:19.542Z,6.90
2022-11-16T13:03:20.250Z,8.10
2022-11-16T13:06:09.715Z,7.40
2022-11-16T13:09:05.942Z,8.50
2022-11-16T13:11:54.478Z,7.90
2022-11-16T13:14:42.521Z,8.20
2022-11-16T13:17:35.019Z,8.70
2022-11-16T13:20:29.937Z,8.70
2022-11-16T13:23:25.600Z,8.10
2022-11-16T13:26:20.426Z,8.30
2022-11-16T13:29:22.519Z,7.80
2022-11-16T13:32:27.771Z,8.80
2022-11-16T13:35:16.860Z,8.30
2022-11-16T13:37:59.768Z,8.10
2022-11-16T13:40:42.969Z,8.00
2022-11-16T13:43:26.130Z,7.60
2022-11-16T13:46:22.345Z,7.90
2022-11-16T13:49:31.029Z,6.70
2022-11-16T13:52:46.996Z,7.30
2022-11-16T13:58:20.915Z,7.60
2022-11-16T14:01:10.862Z,7.90
2022-11-16T14:04:34.126Z,8.40
2022-11-16T14:07:50.149Z,8.30
2022-11-16T14:10:33.187Z,7.00
2022-11-16T14:13:36.402Z,7.20
2022-11-16T14:16:19.710Z,7.40
2022-11-16T14:19:05.084Z,6.30
2022-11-16T14:21:56.898Z,6.70
2022-11-16T14:24:46.685Z,6.40
2022-11-16T14:28:23.559Z,6.60
2022-11-16T14:31:12.518Z,7.30
2022-11-16T14:33:59.498Z,6.20
2022-11-16T14:36:46.790Z,6.90
2022-11-16T14:39:43.550Z,7.70
2022-11-16T14:42:38.060Z,7.60
2022-11-16T14:45:33.315Z,7.60
2022-11-16T14:48:18.986Z,8.30
2022-11-16T14:51:09.578Z,7.70
2022-11-16T14:53:56.581Z,8.10
2022-11-16T14:56:59.045Z,7.40
2022-11-16T14:59:41.806Z,7.00
2022-11-16T15:05:15.584Z,8.80
2022-11-16T15:08:03.570Z,8.00
2022-11-16T15:10:52.117Z,10.80
2022-11-16T15:13:36.092Z,10.10
2022-11-16T15:16:20.526Z,8.10
2022-11-16T15:19:12.385Z,8.40
2022-11-16T15:21:57.812Z,8.30
2022-11-16T15:24:40.630Z,8.90
2022-11-16T15:27:29.621Z,10.20
2022-11-16T15:30:24.865Z,11.00
2022-11-16T15:33:19.295Z,10.30
2022-11-16T15:36:25.130Z,9.60
2022-11-16T15:39:22.883Z,8.40
2022-11-16T15:42:06.582Z,7.20
2022-11-16T15:44:50.751Z,7.50
2022-11-16T15:47:35.247Z,8.60
2022-11-16T15:50:19.505Z,8.40
2022-11-16T15:53:02.632Z,8.30
2022-11-16T15:55:50.133Z,6.90
2022-11-16T15:58:38.412Z,7.60
2022-11-16T16:01:22.558Z,8.60
2022-11-16T16:04:07.795Z,9.40
2022-11-16T16:06:57.003Z,8.00
2022-11-16T16:09:41.480Z,9.30
2022-11-16T16:12:28.326Z,8.90
2022-11-16T16:15:40.514Z,10.50
2022-11-16T16:18:40.673Z,11.60
2022-11-16T16:21:24.468Z,11.50
2022-11-16T16:24:09.799Z,11.50
2022-11-16T16:26:52.720Z,11.30
2022-11-16T16:29:35.609Z,9.40
2022-11-16T16:32:28.998Z,9.60
2022-11-16T16:35:21.518Z,8.90
2022-11-16T16:38:13.946Z,8.70
2022-11-16T16:41:04.132Z,8.70
2022-11-16T16:43:48.136Z,8.80
2022-11-16T16:46:31.068Z,8.40
2022-11-16T16:49:14.109Z,8.40
2022-11-16T16:51:57.255Z,9.90
2022-11-16T16:54:41.261Z,9.60
2022-11-16T16:57:24.482Z,9.90
2022-11-16T17:00:09.710Z,10.30
2022-11-16T17:02:53.074Z,11.60
2022-11-16T17:05:37.346Z,11.20
2022-11-16T17:08:20.848Z,11.90
2022-11-16T17:11:05.603Z,11.50
2022-11-16T17:13:49.216Z,10.70
2022-11-16T17:16:33.005Z,10.60
2022-11-16T17:19:16.524Z,10.00
2022-11-16T17:22:00.162Z,10.90
2022-11-16T17:24:43.398Z,11.00
2022-11-16T17:27:26.461Z,12.00
2022-11-16T17:30:10.394Z,10.90
2022-11-16T17:32:54.856Z,12.20
2022-11-16T17:35:37.785Z,13.50
2022-11-16T17:38:20.993Z,12.70
2022-11-16T17:41:05.394Z,13.70
2022-11-16T17:43:48.543Z,10.80
2022-11-16T17:46:32.926Z,11.30
2022-11-16T17:49:15.881Z,9.80
2022-11-16T17:51:58.978Z,10.50
2022-11-16T17:54:42.107Z,10.80
2022-11-16T17:57:26.069Z,10.30
2022-11-16T18:00:10.482Z,10.70
2022-11-16T18:02:53.877Z,13.40
2022-11-16T18:05:37.814Z,14.20
2022-11-16T18:08:21.253Z,12.20
2022-11-16T18:11:07.127Z,12.40
2022-11-16T18:13:58.488Z,11.20
2022-11-16T18:16:43.519Z,11.80
2022-11-16T18:19:27.432Z,11.30
2022-11-16T18:22:11.368Z,11.40
2022-11-16T18:24:55.408Z,12.10
2022-11-16T18:27:39.551Z,10.80
2022-11-16T18:30:24.171Z,10.70
2022-11-16T18:33:07.632Z,9.70
2022-11-16T18:35:52.287Z,10.50
2022-11-16T18:38:37.661Z,10.50
2022-11-16T18:41:25.462Z,10.00
2022-11-16T18:44:13.751Z,9.40
2022-11-16T18:46:57.762Z,9.50
2022-11-16T18:49:42.852Z,10.20
2022-11-16T18:52:27.073Z,8.80
2022-11-16T18:55:11.109Z,9.10
2022-11-16T18:57:55.048Z,9.30
2022-11-16T19:00:39.370Z,9.30
2022-11-16T19:03:23.769Z,9.00
2022-11-16T19:06:09.147Z,9.00
2022-11-16T19:08:59.605Z,9.20
2022-11-16T19:11:43.844Z,9.30
2022-11-16T19:14:27.702Z,8.90
2022-11-16T19:17:12.455Z,9.20
2022-11-16T19:19:56.489Z,9.10
2022-11-16T19:22:40.620Z,8.00
2022-11-16T19:25:24.475Z,8.30
2022-11-16T19:28:08.822Z,7.20
2022-11-16T19:30:52.870Z,7.70
2022-11-16T19:33:37.471Z,7.80
2022-11-16T19:36:21.867Z,7.60
2022-11-16T19:39:07.830Z,7.40
2022-11-16T19:41:51.552Z,8.90
2022-11-16T19:44:35.310Z,9.50
2022-11-16T19:47:19.057Z,8.80
2022-11-16T19:50:03.099Z,7.70
2022-11-16T19:52:47.234Z,9.50
2022-11-16T19:55:31.289Z,8.30
2022-11-16T19:58:15.250Z,7.80
2022-11-16T20:01:10.722Z,9.20
2022-11-16T20:03:56.310Z,9.90
2022-11-16T20:06:40.858Z,9.00
2022-11-16T20:09:28.029Z,9.70
2022-11-16T20:12:11.640Z,8.30
2022-11-16T20:14:54.918Z,8.80
2022-11-16T20:17:38.104Z,8.70
2022-11-16T20:20:21.166Z,9.10
2022-11-16T20:23:04.036Z,9.30
2022-11-16T20:25:47.974Z,8.90
2022-11-16T20:28:37.588Z,9.20
2022-11-16T20:31:23.407Z,8.60
2022-11-16T20:34:06.247Z,8.70
2022-11-16T20:36:51.398Z,8.70
2022-11-16T20:39:34.284Z,8.40
2022-11-16T20:42:17.068Z,8.50
2022-11-16T20:47:43.607Z,8.90
2022-11-16T20:50:27.514Z,8.60
2022-11-16T20:53:10.278Z,8.60
2022-11-16T20:58:37.279Z,8.20
2022-11-16T21:01:33.825Z,9.60
2022-11-16T21:04:17.227Z,9.80
2022-11-16T21:06:59.994Z,9.30
2022-11-16T21:13:03.107Z,8.70
2022-11-16T21:16:01.312Z,9.50
2022-11-16T21:18:44.193Z,8.50
2022-11-16T21:21:27.518Z,9.40
2022-11-16T21:24:10.909Z,9.80
2022-11-16T21:26:53.732Z,10.00
2022-11-16T21:32:19.278Z,10.20
2022-11-16T21:37:45.005Z,11.10
2022-11-16T21:43:10.450Z,11.20
2022-11-16T21:48:36.765Z,10.70
2022-11-16T21:51:21.883Z,11.00
2022-11-16T21:54:04.796Z,10.40
2022-11-16T21:56:47.615Z,11.30
2022-11-16T22:02:14.544Z,11.10
2022-11-16T22:05:17.329Z,10.80
2022-11-16T22:08:08.785Z,11.00
2022-11-16T22:10:52.417Z,9.40
2022-11-16T22:13:36.585Z,11.10
2022-11-16T22:16:23.588Z,10.80
2022-11-16T22:19:08.737Z,10.10
2022-11-16T22:21:51.504Z,10.40
2022-11-16T22:24:34.466Z,10.90
2022-11-16T22:27:18.813Z,10.70
2022-11-16T22:30:01.622Z,10.50
2022-11-16T22:35:28.518Z,9.20
2022-11-16T22:38:11.295Z,10.50
2022-11-16T22:43:41.266Z,10.40
2022-11-16T22:46:24.126Z,9.60
2022-11-16T22:49:06.892Z,10.60
2022-11-16T22:51:49.853Z,10.00
2022-11-16T22:54:34.310Z,10.30
2022-11-16T22:57:17.116Z,9.70
2022-11-16T23:02:42.741Z,10.00
2022-11-16T23:05:25.615Z,11.60
2022-11-16T23:08:08.470Z,10.20
2022-11-16T23:11:18.329Z,9.90
2022-11-16T23:14:20.504Z,10.70
2022-11-16T23:17:04.598Z,9.80
2022-11-16T23:20:06.336Z,10.20
2022-11-16T23:23:07.568Z,10.00
2022-11-16T23:26:09.311Z,10.90
2022-11-16T23:28:52.125Z,10.60
2022-11-16T23:34:20.061Z,10.40
2022-11-16T23:37:07.435Z,9.50
2022-11-16T23:39:51.385Z,10.70
2022-11-16T23:42:52.791Z,10.10
2022-11-16T23:45:35.709Z,10.70
2022-11-16T23:48:19.349Z,11.00
2022-11-16T23:51:02.150Z,11.50
2022-11-16T23:56:29.244Z,10.70
2022-11-16T23:59:12.122Z,11.00
